createdAt,value
2019-03-05T00:00:52.002Z,6.90
2019-03-05T00:03:20.429Z,6.90
2019-03-05T00:05:49.018Z,6.90
2019-03-05T00:08:17.556Z,6.90
2019-03-05T00:10:46.014Z,6.90
2019-03-05T00:13:14.460Z,6.90
2019-03-05T00:15:43.765Z,6.90
2019-03-05T00:18:12.459Z,6.90
2019-03-05T00:20:40.904Z,6.90
2019-03-05T00:23:09.620Z,6.90
2019-03-05T00:25:38.907Z,6.90
2019-03-05T00:28:22.192Z,7.00
2019-03-05T00:30:56.542Z,7.00
2019-03-05T00:34:03.777Z,7.00
2019-03-05T00:36:37.813Z,7.00
2019-03-05T00:39:24.587Z,7.10
2019-03-05T00:41:58.730Z,7.10
2019-03-05T00:44:51.352Z,7.10
2019-03-05T00:47:39.554Z,7.10
2019-03-05T00:50:27.833Z,7.10
2019-03-05T00:52:59.339Z,7.10
2019-03-05T00:55:30.994Z,7.10
2019-03-05T00:58:11.166Z,7.10
2019-03-05T01:01:03.025Z,7.20
2019-03-05T01:03:58.805Z,7.10
2019-03-05T01:06:27.925Z,7.10
2019-03-05T01:08:57.222Z,7.10
2019-03-05T01:11:26.379Z,7.10
2019-03-05T01:13:54.878Z,7.10
2019-03-05T01:16:31.164Z,7.10
2019-03-05T01:18:59.601Z,7.20
2019-03-05T01:21:28.053Z,7.10
2019-03-05T01:23:56.494Z,7.10
2019-03-05T01:26:25.286Z,7.20
2019-03-05T01:28:53.723Z,7.10
2019-03-05T01:31:33.679Z,7.10
2019-03-05T01:34:15.762Z,7.10
2019-03-05T01:36:45.821Z,7.10
2019-03-05T01:39:28.057Z,7.10
2019-03-05T01:41:56.489Z,7.10
2019-03-05T01:44:25.110Z,7.20
2019-03-05T01:46:53.561Z,7.20
2019-03-05T01:49:22.164Z,7.20
2019-03-05T01:51:50.596Z,7.10
2019-03-05T01:54:19.026Z,7.10
2019-03-05T01:56:47.451Z,7.10
2019-03-05T01:59:16.119Z,7.10
2019-03-05T02:01:44.553Z,6.90
2019-03-05T02:04:13.016Z,6.60
2019-03-05T02:06:41.701Z,6.40
2019-03-05T02:09:10.668Z,6.30
2019-03-05T02:11:39.084Z,6.10
2019-03-05T02:14:07.823Z,6.00
2019-03-05T02:16:36.243Z,6.00
2019-03-05T02:19:42.139Z,6.00
2019-03-05T02:22:16.619Z,6.00
2019-03-05T02:24:53.885Z,6.00
2019-03-05T02:27:39.676Z,5.90
2019-03-05T02:30:31.732Z,5.80
2019-03-05T02:33:14.971Z,5.70
2019-03-05T02:35:48.989Z,5.80
2019-03-05T02:38:29.324Z,5.80
2019-03-05T02:41:12.848Z,5.80
2019-03-05T02:43:46.907Z,5.80
2019-03-05T02:46:33.414Z,5.80
2019-03-05T02:49:13.680Z,5.80
2019-03-05T02:51:48.262Z,5.70
2019-03-05T02:54:34.962Z,5.80
2019-03-05T02:57:08.653Z,5.90
2019-03-05T02:59:37.987Z,5.90
2019-03-05T03:02:09.160Z,5.90
2019-03-05T03:04:45.152Z,5.90
2019-03-05T03:07:13.583Z,6.00
2019-03-05T03:09:51.422Z,6.00
2019-03-05T03:12:19.832Z,6.00
2019-03-05T03:14:48.286Z,6.00
2019-03-05T03:17:16.806Z,6.10
2019-03-05T03:19:45.305Z,6.10
2019-03-05T03:22:13.735Z,6.00
2019-03-05T03:24:42.238Z,6.00
2019-03-05T03:27:10.650Z,6.00
2019-03-05T03:29:39.106Z,6.00
2019-03-05T03:32:07.586Z,5.90
2019-03-05T03:34:36.019Z,6.00
2019-03-05T03:37:04.538Z,6.00
2019-03-05T03:39:32.950Z,5.90
2019-03-05T03:42:01.451Z,5.90
2019-03-05T03:44:29.871Z,5.90
2019-03-05T03:46:58.332Z,5.80
2019-03-05T03:49:26.774Z,5.80
2019-03-05T03:51:55.227Z,5.80
2019-03-05T03:54:23.708Z,5.80
2019-03-05T03:56:52.184Z,5.80
2019-03-05T03:59:20.645Z,5.80
2019-03-05T04:01:49.078Z,5.70
2019-03-05T04:04:18.716Z,5.70
2019-03-05T04:06:47.483Z,5.70
2019-03-05T04:09:15.942Z,5.70
2019-03-05T04:11:44.401Z,5.60
2019-03-05T04:14:12.845Z,5.70
2019-03-05T04:16:41.271Z,5.70
2019-03-05T04:19:11.333Z,5.80
2019-03-05T04:21:39.784Z,5.80
2019-03-05T04:24:08.358Z,5.90
2019-03-05T04:26:36.931Z,5.80
2019-03-05T04:29:05.349Z,5.90
2019-03-05T04:31:34.252Z,5.80
2019-03-05T04:34:02.678Z,5.80
2019-03-05T04:36:31.144Z,5.80
2019-03-05T04:39:01.106Z,5.80
2019-03-05T04:41:29.539Z,5.80
2019-03-05T04:43:57.985Z,5.80
2019-03-05T04:46:35.931Z,5.80
2019-03-05T04:49:08.793Z,5.80
2019-03-05T04:51:38.936Z,5.80
2019-03-05T04:54:07.388Z,5.70
2019-03-05T04:56:35.837Z,5.80
2019-03-05T04:59:04.248Z,5.70
2019-03-05T05:01:32.694Z,5.70
2019-03-05T05:04:01.130Z,5.70
2019-03-05T05:06:29.561Z,5.70
2019-03-05T05:08:57.980Z,5.70
2019-03-05T05:11:26.545Z,5.70
2019-03-05T05:13:54.993Z,5.60
2019-03-05T05:16:23.466Z,5.70
2019-03-05T05:18:51.990Z,5.70
2019-03-05T05:21:20.416Z,5.80
2019-03-05T05:23:48.852Z,5.70
2019-03-05T05:26:17.864Z,5.70
2019-03-05T05:28:46.320Z,5.70
2019-03-05T05:31:14.749Z,5.60
2019-03-05T05:33:43.185Z,5.70
2019-03-05T05:36:11.601Z,5.70
2019-03-05T05:38:40.026Z,5.60
2019-03-05T05:41:08.477Z,5.60
2019-03-05T05:43:36.909Z,5.60
2019-03-05T05:46:05.329Z,5.60
2019-03-05T05:48:33.786Z,5.60
2019-03-05T05:51:02.217Z,5.70
2019-03-05T05:53:30.664Z,5.60
2019-03-05T05:55:59.100Z,5.60
2019-03-05T05:58:27.532Z,5.60
2019-03-05T06:00:57.912Z,5.60
2019-03-05T06:03:26.357Z,5.60
2019-03-05T06:05:54.775Z,5.60
2019-03-05T06:08:23.485Z,5.70
2019-03-05T06:10:53.102Z,5.70
2019-03-05T06:13:22.047Z,5.70
2019-03-05T06:15:50.572Z,5.70
2019-03-05T06:18:20.526Z,5.70
2019-03-05T06:20:50.021Z,5.70
2019-03-05T06:23:18.471Z,5.70
2019-03-05T06:25:46.895Z,5.70
2019-03-05T06:28:15.320Z,5.60
2019-03-05T06:30:44.425Z,5.60
2019-03-05T06:33:12.887Z,5.60
2019-03-05T06:35:41.423Z,5.60
2019-03-05T06:38:09.921Z,5.60
2019-03-05T06:40:38.359Z,5.70
2019-03-05T06:43:06.841Z,5.60
2019-03-05T06:45:35.852Z,5.70
2019-03-05T06:48:04.288Z,5.60
2019-03-05T06:50:32.707Z,5.60
2019-03-05T06:53:01.157Z,5.70
2019-03-05T06:55:29.584Z,7.20
2019-03-05T06:57:58.023Z,8.50
2019-03-05T07:00:41.309Z,9.30
2019-03-05T07:03:10.221Z,9.00
2019-03-05T07:06:14.977Z,9.40
2019-03-05T07:08:55.141Z,9.10
2019-03-05T07:11:32.729Z,8.90
2019-03-05T07:14:25.054Z,8.80
2019-03-05T07:17:12.957Z,9.10
2019-03-05T07:19:58.016Z,8.90
2019-03-05T07:22:23.428Z,8.70
2019-03-05T07:24:52.123Z,6.90
2019-03-05T07:27:26.079Z,6.30
2019-03-05T07:29:57.165Z,6.20
2019-03-05T07:32:25.601Z,6.10
2019-03-05T07:34:54.054Z,6.10
2019-03-05T07:37:22.478Z,6.00
2019-03-05T07:39:50.925Z,6.00
2019-03-05T07:42:19.355Z,6.00
2019-03-05T07:44:47.807Z,6.10
2019-03-05T07:47:16.229Z,6.10
2019-03-05T07:49:44.664Z,6.10
2019-03-05T07:52:13.086Z,6.10
2019-03-05T07:54:41.521Z,6.20
2019-03-05T07:57:09.948Z,6.20
2019-03-05T07:59:38.393Z,6.40
2019-03-05T08:02:06.817Z,6.20
2019-03-05T08:04:35.260Z,6.20
2019-03-05T08:07:03.743Z,6.30
2019-03-05T08:09:33.726Z,6.30
2019-03-05T08:12:22.042Z,6.30
2019-03-05T08:14:59.440Z,6.30
2019-03-05T08:17:27.865Z,6.30
2019-03-05T08:19:56.313Z,6.30
2019-03-05T08:22:25.037Z,6.30
2019-03-05T08:24:53.508Z,6.40
2019-03-05T08:27:22.120Z,6.40
2019-03-05T08:29:50.937Z,6.40
2019-03-05T08:32:19.368Z,6.50
2019-03-05T08:34:47.830Z,6.50
2019-03-05T08:37:16.517Z,6.70
2019-03-05T08:39:44.946Z,6.70
2019-03-05T08:42:13.377Z,6.70
2019-03-05T08:44:49.949Z,6.60
2019-03-05T08:47:11.960Z,6.70
2019-03-05T08:49:40.402Z,6.60
2019-03-05T08:52:08.813Z,6.60
2019-03-05T08:54:37.250Z,6.60
2019-03-05T08:57:05.707Z,6.60
2019-03-05T08:59:34.225Z,6.50
2019-03-05T09:02:02.642Z,6.50
2019-03-05T09:04:31.068Z,6.50
2019-03-05T09:07:00.653Z,6.60
2019-03-05T09:09:29.122Z,6.60
2019-03-05T09:11:57.584Z,6.60
2019-03-05T09:14:26.038Z,6.60
2019-03-05T09:16:54.501Z,6.60
2019-03-05T09:19:22.988Z,6.60
2019-03-05T09:21:51.439Z,6.60
2019-03-05T09:24:19.925Z,6.70
2019-03-05T09:26:51.437Z,6.70
2019-03-05T09:29:18.549Z,6.60
2019-03-05T09:31:46.985Z,6.60
2019-03-05T09:34:15.410Z,6.70
2019-03-05T09:36:50.779Z,6.70
2019-03-05T09:39:14.390Z,6.50
2019-03-05T09:41:42.824Z,6.60
2019-03-05T09:44:11.249Z,6.60
2019-03-05T09:46:39.686Z,6.50
2019-03-05T09:49:08.113Z,6.40
2019-03-05T09:51:36.546Z,6.40
2019-03-05T09:54:05.845Z,6.30
2019-03-05T09:56:34.349Z,6.30
2019-03-05T09:59:04.517Z,6.20
2019-03-05T10:01:32.962Z,6.20
2019-03-05T10:04:01.432Z,6.10
2019-03-05T10:06:29.885Z,5.90
2019-03-05T10:08:58.317Z,5.90
2019-03-05T10:11:27.002Z,5.70
2019-03-05T10:13:55.438Z,5.50
2019-03-05T10:16:23.884Z,5.30
2019-03-05T10:18:52.325Z,5.30
2019-03-05T10:21:20.792Z,5.40
2019-03-05T10:23:49.393Z,5.40
2019-03-05T10:26:18.792Z,5.40
2019-03-05T10:28:47.339Z,5.50
2019-03-05T10:31:18.511Z,5.50
2019-03-05T10:33:46.309Z,5.50
2019-03-05T10:36:14.741Z,5.50
2019-03-05T10:38:43.223Z,5.60
2019-03-05T10:41:11.653Z,5.80
2019-03-05T10:43:40.097Z,5.80
2019-03-05T10:46:08.564Z,5.70
2019-03-05T10:48:36.987Z,5.60
2019-03-05T10:51:05.856Z,5.60
2019-03-05T10:53:34.311Z,5.70
2019-03-05T10:56:02.865Z,5.60
2019-03-05T10:58:34.177Z,5.60
2019-03-05T11:01:01.834Z,5.60
2019-03-05T11:03:31.165Z,5.70
2019-03-05T11:06:00.134Z,5.70
2019-03-05T11:08:28.607Z,5.70
2019-03-05T11:10:57.810Z,5.60
2019-03-05T11:13:26.235Z,5.50
2019-03-05T11:15:59.761Z,5.60
2019-03-05T11:18:29.940Z,5.60
2019-03-05T11:20:59.108Z,5.60
2019-03-05T11:23:27.658Z,5.60
2019-03-05T11:25:56.240Z,5.70
2019-03-05T11:28:24.649Z,5.60
2019-03-05T11:30:53.185Z,5.60
2019-03-05T11:33:22.052Z,5.60
2019-03-05T11:35:52.372Z,5.70
2019-03-05T11:38:21.396Z,5.60
2019-03-05T11:40:49.816Z,5.60
2019-03-05T11:43:18.429Z,5.60
2019-03-05T11:45:46.848Z,5.70
2019-03-05T11:48:16.321Z,5.60
2019-03-05T11:50:45.384Z,5.60
2019-03-05T11:53:13.885Z,5.80
2019-03-05T11:55:42.341Z,5.80
2019-03-05T11:58:10.785Z,5.70
2019-03-05T12:00:50.108Z,5.70
2019-03-05T12:03:18.632Z,5.70
2019-03-05T12:05:47.065Z,5.70
2019-03-05T12:08:15.499Z,5.80
2019-03-05T12:10:43.921Z,5.90
2019-03-05T12:13:14.376Z,5.90
2019-03-05T12:15:44.468Z,5.90
2019-03-05T12:18:12.950Z,6.00
2019-03-05T12:20:41.481Z,6.00
2019-03-05T12:23:10.586Z,6.20
2019-03-05T12:25:41.111Z,6.30
2019-03-05T12:28:10.979Z,6.30
2019-03-05T12:30:40.335Z,6.10
2019-03-05T12:33:08.850Z,5.90
2019-03-05T12:35:37.265Z,5.90
2019-03-05T12:38:05.861Z,5.80
2019-03-05T12:40:34.288Z,5.80
2019-03-05T12:43:02.743Z,5.70
2019-03-05T12:45:31.257Z,5.80
2019-03-05T12:47:59.756Z,5.80
2019-03-05T12:50:33.808Z,5.90
2019-03-05T12:53:02.233Z,5.90
2019-03-05T12:55:30.657Z,5.90
2019-03-05T12:57:59.132Z,5.90
2019-03-05T13:00:32.804Z,6.00
2019-03-05T13:03:01.235Z,6.00
2019-03-05T13:05:29.887Z,5.90
2019-03-05T13:07:58.300Z,6.00
2019-03-05T13:10:34.927Z,6.00
2019-03-05T13:12:58.356Z,6.10
2019-03-05T13:15:31.720Z,6.20
2019-03-05T13:18:00.142Z,6.10
2019-03-05T13:20:28.849Z,6.10
2019-03-05T13:22:57.327Z,6.10
2019-03-05T13:25:28.740Z,6.10
2019-03-05T13:27:57.514Z,6.10
2019-03-05T13:30:28.768Z,6.30
2019-03-05T13:32:59.172Z,6.20
2019-03-05T13:35:30.242Z,6.10
2019-03-05T13:38:09.802Z,6.20
2019-03-05T13:40:40.448Z,6.20
2019-03-05T13:43:08.610Z,6.10
2019-03-05T13:45:37.047Z,6.10
2019-03-05T13:48:25.165Z,6.10
2019-03-05T13:51:08.797Z,6.20
2019-03-05T13:54:05.613Z,6.30
2019-03-05T13:56:42.202Z,6.20
2019-03-05T13:59:19.521Z,6.30
2019-03-05T14:01:47.945Z,6.30
2019-03-05T14:04:19.509Z,6.30
2019-03-05T14:06:53.640Z,6.40
2019-03-05T14:09:21.005Z,6.60
2019-03-05T14:11:50.577Z,6.50
2019-03-05T14:14:24.538Z,6.70
2019-03-05T14:16:58.122Z,6.60
2019-03-05T14:19:26.745Z,6.60
2019-03-05T14:21:55.240Z,6.60
2019-03-05T14:24:23.781Z,6.70
2019-03-05T14:26:52.317Z,6.80
2019-03-05T14:29:22.065Z,6.70
2019-03-05T14:31:50.521Z,6.80
2019-03-05T14:34:19.015Z,6.70
2019-03-05T14:36:47.476Z,6.60
2019-03-05T14:39:29.590Z,6.60
2019-03-05T14:41:58.508Z,6.70
2019-03-05T14:44:39.095Z,6.90
2019-03-05T14:46:59.841Z,7.00
2019-03-05T14:49:28.498Z,7.10
2019-03-05T14:51:57.005Z,7.10
2019-03-05T14:54:25.446Z,7.20
2019-03-05T14:56:53.877Z,7.40
2019-03-05T14:59:22.304Z,7.30
2019-03-05T15:01:50.981Z,7.40
2019-03-05T15:04:19.779Z,7.50
2019-03-05T15:06:48.279Z,7.40
2019-03-05T15:09:16.811Z,7.30
2019-03-05T15:11:45.396Z,7.30
2019-03-05T15:14:13.849Z,7.30
2019-03-05T15:16:42.310Z,7.50
2019-03-05T15:19:20.955Z,7.50
2019-03-05T15:21:40.966Z,7.60
2019-03-05T15:24:09.786Z,7.50
2019-03-05T15:26:38.327Z,7.60
2019-03-05T15:29:06.820Z,7.60
2019-03-05T15:31:35.591Z,7.60
2019-03-05T15:34:04.086Z,7.60
2019-03-05T15:36:32.524Z,7.50
2019-03-05T15:39:01.048Z,7.60
2019-03-05T15:41:29.571Z,7.50
2019-03-05T15:43:58.064Z,7.40
2019-03-05T15:46:26.574Z,7.40
2019-03-05T15:48:55.194Z,7.30
2019-03-05T15:51:23.919Z,7.30
2019-03-05T15:53:52.375Z,7.40
2019-03-05T15:56:20.802Z,7.40
2019-03-05T15:58:49.249Z,7.40
2019-03-05T16:01:22.215Z,7.40
2019-03-05T16:03:47.856Z,7.40
2019-03-05T16:06:16.310Z,7.50
2019-03-05T16:08:44.748Z,7.60
2019-03-05T16:11:13.223Z,7.60
2019-03-05T16:13:41.673Z,7.60
2019-03-05T16:16:10.102Z,7.60
2019-03-05T16:18:39.433Z,7.60
2019-03-05T16:21:08.729Z,7.70
2019-03-05T16:23:39.565Z,7.60
2019-03-05T16:26:08.057Z,7.60
2019-03-05T16:28:39.156Z,7.70
2019-03-05T16:31:17.277Z,7.70
2019-03-05T16:33:53.210Z,7.60
2019-03-05T16:36:39.557Z,7.50
2019-03-05T16:39:27.292Z,7.60
2019-03-05T16:42:05.397Z,7.60
2019-03-05T16:44:38.521Z,7.60
2019-03-05T16:47:17.621Z,7.60
2019-03-05T16:49:53.389Z,7.50
2019-03-05T16:52:23.555Z,7.50
2019-03-05T16:55:10.158Z,7.50
2019-03-05T16:57:52.400Z,7.40
2019-03-05T17:00:38.634Z,7.40
2019-03-05T17:03:17.672Z,7.40
2019-03-05T17:06:04.300Z,7.40
2019-03-05T17:08:53.258Z,7.30
2019-03-05T17:11:26.262Z,7.30
2019-03-05T17:13:54.710Z,7.20
2019-03-05T17:16:23.633Z,7.20
2019-03-05T17:18:52.061Z,7.20
2019-03-05T17:21:27.061Z,7.20
2019-03-05T17:23:50.650Z,7.20
2019-03-05T17:26:19.073Z,7.20
2019-03-05T17:28:48.045Z,7.20
2019-03-05T17:31:16.581Z,7.10
2019-03-05T17:33:45.054Z,7.10
2019-03-05T17:36:13.518Z,7.50
2019-03-05T17:38:42.086Z,8.00
2019-03-05T17:41:10.889Z,8.40
2019-03-05T17:43:39.492Z,8.60
2019-03-05T17:46:08.029Z,8.80
2019-03-05T17:48:36.557Z,9.10
2019-03-05T17:51:05.307Z,9.00
2019-03-05T17:53:33.810Z,9.20
2019-03-05T17:56:02.465Z,9.20
2019-03-05T17:58:30.994Z,9.30
2019-03-05T18:01:00.882Z,9.10
2019-03-05T18:03:29.416Z,8.40
2019-03-05T18:05:57.911Z,8.10
2019-03-05T18:08:26.486Z,7.80
2019-03-05T18:10:55.065Z,7.70
2019-03-05T18:13:23.576Z,7.60
2019-03-05T18:15:52.178Z,7.60
2019-03-05T18:18:20.645Z,7.50
2019-03-05T18:20:49.309Z,7.50
2019-03-05T18:23:17.833Z,7.40
2019-03-05T18:25:46.364Z,7.30
2019-03-05T18:28:15.019Z,7.30
2019-03-05T18:30:44.024Z,7.30
2019-03-05T18:33:12.565Z,7.30
2019-03-05T18:35:40.998Z,7.20
2019-03-05T18:38:09.457Z,7.20
2019-03-05T18:40:38.053Z,7.20
2019-03-05T18:43:06.653Z,7.10
2019-03-05T18:45:39.637Z,7.10
2019-03-05T18:48:08.064Z,7.10
2019-03-05T18:50:36.567Z,7.10
2019-03-05T18:53:05.864Z,7.10
2019-03-05T18:55:34.345Z,7.00
2019-03-05T18:58:02.772Z,7.00
2019-03-05T19:00:35.302Z,7.00
2019-03-05T19:03:11.708Z,7.00
2019-03-05T19:05:42.073Z,7.00
2019-03-05T19:08:10.510Z,6.90
2019-03-05T19:10:38.949Z,6.90
2019-03-05T19:13:07.635Z,6.80
2019-03-05T19:15:36.147Z,6.80
2019-03-05T19:18:06.445Z,6.80
2019-03-05T19:20:35.125Z,6.80
2019-03-05T19:23:03.560Z,6.80
2019-03-05T19:25:40.213Z,6.80
2019-03-05T19:28:11.344Z,6.80
2019-03-05T19:30:42.177Z,6.70
2019-03-05T19:33:10.710Z,6.70
2019-03-05T19:35:39.206Z,6.70
2019-03-05T19:38:07.915Z,6.70
2019-03-05T19:40:39.021Z,6.70
2019-03-05T19:43:08.050Z,6.70
2019-03-05T19:45:36.554Z,6.50
2019-03-05T19:48:06.385Z,6.50
2019-03-05T19:50:35.017Z,6.50
2019-03-05T19:53:03.466Z,6.50
2019-03-05T19:55:33.644Z,6.40
2019-03-05T19:58:19.472Z,6.40
2019-03-05T20:00:59.958Z,6.40
2019-03-05T20:03:28.464Z,6.30
2019-03-05T20:05:56.901Z,6.40
2019-03-05T20:08:25.381Z,6.40
2019-03-05T20:10:53.819Z,6.30
2019-03-05T20:13:22.288Z,6.30
2019-03-05T20:15:50.760Z,6.30
2019-03-05T20:18:19.468Z,6.30
2019-03-05T20:20:47.903Z,6.30
2019-03-05T20:23:16.357Z,6.30
2019-03-05T20:25:48.048Z,6.30
2019-03-05T20:28:16.479Z,6.20
2019-03-05T20:30:44.969Z,6.20
2019-03-05T20:33:13.413Z,6.20
2019-03-05T20:35:41.837Z,6.20
2019-03-05T20:38:10.353Z,6.20
2019-03-05T20:40:38.860Z,6.10
2019-03-05T20:43:07.549Z,6.10
2019-03-05T20:45:42.012Z,6.00
2019-03-05T20:48:10.693Z,6.10
2019-03-05T20:50:39.383Z,6.00
2019-03-05T20:53:08.089Z,6.10
2019-03-05T20:55:36.610Z,6.00
2019-03-05T20:58:05.129Z,6.10
2019-03-05T21:00:35.357Z,6.10
2019-03-05T21:03:12.030Z,6.10
2019-03-05T21:05:49.544Z,6.00
2019-03-05T21:08:17.992Z,6.00
2019-03-05T21:10:46.485Z,5.90
2019-03-05T21:13:15.197Z,5.80
2019-03-05T21:15:43.634Z,5.90
2019-03-05T21:18:14.004Z,5.90
2019-03-05T21:20:42.442Z,5.80
2019-03-05T21:23:11.017Z,5.80
2019-03-05T21:25:41.307Z,5.80
2019-03-05T21:28:09.724Z,5.80
2019-03-05T21:30:38.187Z,5.80
2019-03-05T21:33:06.634Z,5.80
2019-03-05T21:35:35.128Z,5.80
2019-03-05T21:38:03.875Z,5.80
2019-03-05T21:40:33.360Z,5.80
2019-03-05T21:43:01.904Z,5.70
2019-03-05T21:45:51.756Z,5.70
2019-03-05T21:48:20.181Z,5.70
2019-03-05T21:50:48.613Z,5.70
2019-03-05T21:53:17.222Z,5.70
2019-03-05T21:55:45.691Z,5.70
2019-03-05T21:58:14.277Z,5.70
2019-03-05T22:00:46.216Z,5.70
2019-03-05T22:03:14.967Z,5.60
2019-03-05T22:05:43.497Z,5.60
2019-03-05T22:08:11.974Z,5.60
2019-03-05T22:10:40.401Z,5.60
2019-03-05T22:13:08.841Z,5.60
2019-03-05T22:15:37.669Z,5.60
2019-03-05T22:18:06.085Z,5.60
2019-03-05T22:20:34.523Z,5.60
2019-03-05T22:23:03.072Z,5.60
2019-03-05T22:25:31.577Z,5.60
2019-03-05T22:28:00.009Z,5.70
2019-03-05T22:30:39.028Z,5.70
2019-03-05T22:33:08.032Z,5.60
2019-03-05T22:35:36.533Z,5.70
2019-03-05T22:38:05.158Z,5.70
2019-03-05T22:40:33.609Z,5.60
2019-03-05T22:43:02.222Z,5.60
2019-03-05T22:45:33.007Z,5.60
2019-03-05T22:48:01.454Z,5.60
2019-03-05T22:50:29.956Z,5.60
2019-03-05T22:52:58.386Z,5.60
2019-03-05T22:55:26.999Z,5.60
2019-03-05T22:57:56.105Z,5.50
2019-03-05T23:00:43.697Z,5.50
2019-03-05T23:03:15.138Z,5.50
2019-03-05T23:05:43.572Z,5.50
2019-03-05T23:08:11.997Z,5.50
2019-03-05T23:10:40.481Z,5.50
2019-03-05T23:13:08.909Z,5.60
2019-03-05T23:15:37.404Z,5.60
2019-03-05T23:18:05.870Z,5.60
2019-03-05T23:20:34.331Z,5.60
2019-03-05T23:23:02.925Z,5.60
2019-03-05T23:25:31.358Z,5.70
2019-03-05T23:27:59.817Z,5.70
2019-03-05T23:30:28.253Z,5.70
2019-03-05T23:32:57.238Z,5.70
2019-03-05T23:35:25.666Z,5.70
2019-03-05T23:37:54.112Z,5.70
2019-03-05T23:40:22.608Z,5.70
2019-03-05T23:42:51.033Z,5.70
2019-03-05T23:45:20.493Z,5.70
2019-03-05T23:47:49.022Z,5.70
2019-03-05T23:50:18.197Z,5.70
2019-03-05T23:52:46.873Z,5.70
2019-03-05T23:55:16.157Z,5.70
2019-03-05T23:57:45.071Z,5.70
